sensor_id;sensor_type;location;lat;lon;timestamp;P1;durP1;ratioP1;P2;durP2;ratioP2
9270;SDS011;4673;53.458;9.940;2023-07-30T00:01:31;5.90;;;5.90;;
9270;SDS011;4673;53.458;9.940;2023-07-30T00:03:57;7.15;;;7.15;;
9270;SDS011;4673;53.458;9.940;2023-07-30T00:06:23;6.30;;;6.30;;
9270;SDS011;4673;53.458;9.940;2023-07-30T00:08:49;6.95;;;6.90;;
9270;SDS011;4673;53.458;9.940;2023-07-30T00:11:15;5.80;;;5.80;;
9270;SDS011;4673;53.458;9.940;2023-07-30T00:13:41;6.15;;;6.15;;
9270;SDS011;4673;53.458;9.940;2023-07-30T00:16:06;4.93;;;4.93;;
9270;SDS011;4673;53.458;9.940;2023-07-30T00:18:32;4.63;;;4.63;;
9270;SDS011;4673;53.458;9.940;2023-07-30T00:20:58;3.92;;;3.92;;
9270;SDS011;4673;53.458;9.940;2023-07-30T00:23:23;4.40;;;4.40;;
9270;SDS011;4673;53.458;9.940;2023-07-30T00:25:49;4.38;;;4.38;;
9270;SDS011;4673;53.458;9.940;2023-07-30T00:28:14;5.18;;;5.18;;
9270;SDS011;4673;53.458;9.940;2023-07-30T00:30:40;4.95;;;4.95;;
9270;SDS011;4673;53.458;9.940;2023-07-30T00:33:06;4.57;;;4.57;;
9270;SDS011;4673;53.458;9.940;2023-07-30T00:35:31;4.70;;;4.70;;
9270;SDS011;4673;53.458;9.940;2023-07-30T00:37:57;4.28;;;4.28;;
9270;SDS011;4673;53.458;9.940;2023-07-30T00:40:22;4.03;;;4.03;;
9270;SDS011;4673;53.458;9.940;2023-07-30T00:42:48;3.95;;;3.95;;
9270;SDS011;4673;53.458;9.940;2023-07-30T00:45:14;4.40;;;4.40;;
9270;SDS011;4673;53.458;9.940;2023-07-30T00:47:40;4.75;;;4.75;;
9270;SDS011;4673;53.458;9.940;2023-07-30T00:50:07;4.82;;;4.82;;
9270;SDS011;4673;53.458;9.940;2023-07-30T00:52:33;4.20;;;4.20;;
9270;SDS011;4673;53.458;9.940;2023-07-30T00:55:00;5.18;;;5.18;;
9270;SDS011;4673;53.458;9.940;2023-07-30T00:57:27;4.80;;;4.80;;
9270;SDS011;4673;53.458;9.940;2023-07-30T00:59:54;5.28;;;5.28;;
9270;SDS011;4673;53.458;9.940;2023-07-30T01:02:21;5.13;;;5.13;;
9270;SDS011;4673;53.458;9.940;2023-07-30T01:04:47;5.47;;;5.47;;
9270;SDS011;4673;53.458;9.940;2023-07-30T01:07:13;5.50;;;5.50;;
9270;SDS011;4673;53.458;9.940;2023-07-30T01:09:38;5.28;;;5.28;;
9270;SDS011;4673;53.458;9.940;2023-07-30T01:12:04;5.32;;;5.32;;
9270;SDS011;4673;53.458;9.940;2023-07-30T01:14:32;5.57;;;5.57;;
9270;SDS011;4673;53.458;9.940;2023-07-30T01:16:58;5.85;;;5.85;;
9270;SDS011;4673;53.458;9.940;2023-07-30T01:19:24;5.45;;;5.45;;
9270;SDS011;4673;53.458;9.940;2023-07-30T01:21:49;6.05;;;6.05;;
9270;SDS011;4673;53.458;9.940;2023-07-30T01:24:15;6.35;;;6.35;;
9270;SDS011;4673;53.458;9.940;2023-07-30T01:26:44;6.00;;;6.00;;
9270;SDS011;4673;53.458;9.940;2023-07-30T01:29:21;6.03;;;6.03;;
9270;SDS011;4673;53.458;9.940;2023-07-30T01:31:52;6.55;;;6.55;;
9270;SDS011;4673;53.458;9.940;2023-07-30T01:34:24;6.40;;;6.40;;
9270;SDS011;4673;53.458;9.940;2023-07-30T01:36:52;7.20;;;7.20;;
9270;SDS011;4673;53.458;9.940;2023-07-30T01:39:19;6.85;;;6.82;;
9270;SDS011;4673;53.458;9.940;2023-07-30T01:41:45;6.82;;;6.82;;
9270;SDS011;4673;53.458;9.940;2023-07-30T01:44:11;7.90;;;7.90;;
9270;SDS011;4673;53.458;9.940;2023-07-30T01:46:37;7.50;;;7.50;;
9270;SDS011;4673;53.458;9.940;2023-07-30T01:49:02;6.70;;;6.70;;
9270;SDS011;4673;53.458;9.940;2023-07-30T01:51:28;7.82;;;7.82;;
9270;SDS011;4673;53.458;9.940;2023-07-30T01:53:54;7.35;;;7.35;;
9270;SDS011;4673;53.458;9.940;2023-07-30T01:56:19;7.65;;;7.65;;
9270;SDS011;4673;53.458;9.940;2023-07-30T01:58:45;8.52;;;8.52;;
9270;SDS011;4673;53.458;9.940;2023-07-30T02:01:11;7.53;;;7.53;;
9270;SDS011;4673;53.458;9.940;2023-07-30T02:03:37;8.05;;;8.05;;
9270;SDS011;4673;53.458;9.940;2023-07-30T02:06:02;7.90;;;7.90;;
9270;SDS011;4673;53.458;9.940;2023-07-30T02:08:28;7.97;;;7.97;;
9270;SDS011;4673;53.458;9.940;2023-07-30T02:10:54;7.63;;;7.63;;
9270;SDS011;4673;53.458;9.940;2023-07-30T02:13:24;6.90;;;6.90;;
9270;SDS011;4673;53.458;9.940;2023-07-30T02:15:49;8.07;;;8.07;;
9270;SDS011;4673;53.458;9.940;2023-07-30T02:18:15;9.52;;;9.52;;
9270;SDS011;4673;53.458;9.940;2023-07-30T02:20:41;9.43;;;9.43;;
9270;SDS011;4673;53.458;9.940;2023-07-30T02:23:07;10.65;;;10.60;;
9270;SDS011;4673;53.458;9.940;2023-07-30T02:25:32;10.60;;;10.60;;
9270;SDS011;4673;53.458;9.940;2023-07-30T02:27:59;10.57;;;10.57;;
9270;SDS011;4673;53.458;9.940;2023-07-30T02:30:25;13.43;;;13.32;;
9270;SDS011;4673;53.458;9.940;2023-07-30T02:32:51;12.13;;;12.13;;
9270;SDS011;4673;53.458;9.940;2023-07-30T02:35:17;12.50;;;12.40;;
9270;SDS011;4673;53.458;9.940;2023-07-30T02:37:43;11.63;;;11.63;;
9270;SDS011;4673;53.458;9.940;2023-07-30T02:40:08;11.70;;;11.70;;
9270;SDS011;4673;53.458;9.940;2023-07-30T02:42:34;10.77;;;10.77;;
9270;SDS011;4673;53.458;9.940;2023-07-30T02:45:00;11.10;;;11.10;;
9270;SDS011;4673;53.458;9.940;2023-07-30T02:47:26;11.68;;;11.60;;
9270;SDS011;4673;53.458;9.940;2023-07-30T02:49:51;10.82;;;10.75;;
9270;SDS011;4673;53.458;9.940;2023-07-30T02:52:17;9.90;;;9.90;;
9270;SDS011;4673;53.458;9.940;2023-07-30T02:54:43;10.60;;;10.52;;
9270;SDS011;4673;53.458;9.940;2023-07-30T02:57:08;10.55;;;10.55;;
9270;SDS011;4673;53.458;9.940;2023-07-30T02:59:35;10.95;;;10.95;;
9270;SDS011;4673;53.458;9.940;2023-07-30T03:02:02;11.18;;;11.18;;
9270;SDS011;4673;53.458;9.940;2023-07-30T03:04:30;12.32;;;12.23;;
9270;SDS011;4673;53.458;9.940;2023-07-30T03:06:56;12.20;;;12.10;;
9270;SDS011;4673;53.458;9.940;2023-07-30T03:09:21;12.15;;;12.05;;
9270;SDS011;4673;53.458;9.940;2023-07-30T03:11:47;11.98;;;11.98;;
9270;SDS011;4673;53.458;9.940;2023-07-30T03:14:16;11.77;;;11.68;;
9270;SDS011;4673;53.458;9.940;2023-07-30T03:16:45;11.73;;;11.63;;
9270;SDS011;4673;53.458;9.940;2023-07-30T03:19:12;11.63;;;11.52;;
9270;SDS011;4673;53.458;9.940;2023-07-30T03:21:37;11.15;;;11.05;;
9270;SDS011;4673;53.458;9.940;2023-07-30T03:24:03;10.65;;;10.55;;
9270;SDS011;4673;53.458;9.940;2023-07-30T03:26:29;10.98;;;10.98;;
9270;SDS011;4673;53.458;9.940;2023-07-30T03:28:54;11.43;;;11.32;;
9270;SDS011;4673;53.458;9.940;2023-07-30T03:31:20;11.13;;;11.02;;
9270;SDS011;4673;53.458;9.940;2023-07-30T03:33:46;10.35;;;10.25;;
9270;SDS011;4673;53.458;9.940;2023-07-30T03:36:11;10.68;;;10.57;;
9270;SDS011;4673;53.458;9.940;2023-07-30T03:38:41;9.73;;;9.63;;
9270;SDS011;4673;53.458;9.940;2023-07-30T03:41:08;9.95;;;9.90;;
9270;SDS011;4673;53.458;9.940;2023-07-30T03:43:34;9.27;;;9.18;;
9270;SDS011;4673;53.458;9.940;2023-07-30T03:46:01;10.00;;;9.90;;
9270;SDS011;4673;53.458;9.940;2023-07-30T03:48:26;9.73;;;9.73;;
9270;SDS011;4673;53.458;9.940;2023-07-30T03:50:55;8.80;;;8.80;;
9270;SDS011;4673;53.458;9.940;2023-07-30T03:53:21;8.98;;;8.88;;
9270;SDS011;4673;53.458;9.940;2023-07-30T03:55:47;8.93;;;8.90;;
9270;SDS011;4673;53.458;9.940;2023-07-30T03:58:13;10.05;;;9.95;;
9270;SDS011;4673;53.458;9.940;2023-07-30T04:00:39;9.32;;;9.32;;
9270;SDS011;4673;53.458;9.940;2023-07-30T04:03:05;9.00;;;9.00;;
9270;SDS011;4673;53.458;9.940;2023-07-30T04:05:31;8.73;;;8.65;;
9270;SDS011;4673;53.458;9.940;2023-07-30T04:07:57;7.65;;;7.57;;
9270;SDS011;4673;53.458;9.940;2023-07-30T04:10:22;7.97;;;7.97;;
9270;SDS011;4673;53.458;9.940;2023-07-30T04:12:48;10.20;;;10.10;;
9270;SDS011;4673;53.458;9.940;2023-07-30T04:15:14;9.13;;;9.02;;
9270;SDS011;4673;53.458;9.940;2023-07-30T04:17:40;8.50;;;8.40;;
9270;SDS011;4673;53.458;9.940;2023-07-30T04:20:06;8.15;;;8.15;;
9270;SDS011;4673;53.458;9.940;2023-07-30T04:22:33;8.25;;;8.15;;
9270;SDS011;4673;53.458;9.940;2023-07-30T04:24:58;8.38;;;8.38;;
9270;SDS011;4673;53.458;9.940;2023-07-30T04:27:24;9.45;;;9.45;;
9270;SDS011;4673;53.458;9.940;2023-07-30T04:29:49;8.35;;;8.35;;
9270;SDS011;4673;53.458;9.940;2023-07-30T04:32:15;9.70;;;9.60;;
9270;SDS011;4673;53.458;9.940;2023-07-30T04:34:41;8.90;;;8.90;;
9270;SDS011;4673;53.458;9.940;2023-07-30T04:37:06;9.52;;;9.43;;
9270;SDS011;4673;53.458;9.940;2023-07-30T04:39:32;8.80;;;8.80;;
9270;SDS011;4673;53.458;9.940;2023-07-30T04:41:58;9.38;;;9.27;;
9270;SDS011;4673;53.458;9.940;2023-07-30T04:44:24;9.32;;;9.23;;
9270;SDS011;4673;53.458;9.940;2023-07-30T04:46:49;8.55;;;8.55;;
9270;SDS011;4673;53.458;9.940;2023-07-30T04:49:15;8.75;;;8.75;;
9270;SDS011;4673;53.458;9.940;2023-07-30T04:51:41;8.32;;;8.32;;
9270;SDS011;4673;53.458;9.940;2023-07-30T04:54:06;8.20;;;8.13;;
9270;SDS011;4673;53.458;9.940;2023-07-30T04:56:32;7.60;;;7.60;;
9270;SDS011;4673;53.458;9.940;2023-07-30T04:58:57;8.20;;;8.20;;
9270;SDS011;4673;53.458;9.940;2023-07-30T05:01:24;8.18;;;8.18;;
9270;SDS011;4673;53.458;9.940;2023-07-30T05:03:49;9.48;;;9.38;;
9270;SDS011;4673;53.458;9.940;2023-07-30T05:06:15;9.45;;;9.35;;
9270;SDS011;4673;53.458;9.940;2023-07-30T05:08:41;8.82;;;8.82;;
9270;SDS011;4673;53.458;9.940;2023-07-30T05:11:06;9.25;;;9.18;;
9270;SDS011;4673;53.458;9.940;2023-07-30T05:13:32;8.13;;;8.07;;
9270;SDS011;4673;53.458;9.940;2023-07-30T05:15:58;8.05;;;8.05;;
9270;SDS011;4673;53.458;9.940;2023-07-30T05:18:24;9.02;;;9.00;;
9270;SDS011;4673;53.458;9.940;2023-07-30T05:20:49;8.50;;;8.50;;
9270;SDS011;4673;53.458;9.940;2023-07-30T05:23:15;7.53;;;7.53;;
9270;SDS011;4673;53.458;9.940;2023-07-30T05:25:41;8.55;;;8.45;;
9270;SDS011;4673;53.458;9.940;2023-07-30T05:28:06;8.23;;;8.20;;
9270;SDS011;4673;53.458;9.940;2023-07-30T05:30:32;8.05;;;8.05;;
9270;SDS011;4673;53.458;9.940;2023-07-30T05:32:58;7.30;;;7.30;;
9270;SDS011;4673;53.458;9.940;2023-07-30T05:35:23;7.82;;;7.82;;
9270;SDS011;4673;53.458;9.940;2023-07-30T05:37:49;7.30;;;7.25;;
9270;SDS011;4673;53.458;9.940;2023-07-30T05:40:15;7.95;;;7.95;;
9270;SDS011;4673;53.458;9.940;2023-07-30T05:42:40;7.47;;;7.38;;
9270;SDS011;4673;53.458;9.940;2023-07-30T05:45:06;7.80;;;7.80;;
9270;SDS011;4673;53.458;9.940;2023-07-30T05:47:33;8.00;;;8.00;;
9270;SDS011;4673;53.458;9.940;2023-07-30T05:49:58;7.63;;;7.63;;
9270;SDS011;4673;53.458;9.940;2023-07-30T05:52:24;8.02;;;7.97;;
9270;SDS011;4673;53.458;9.940;2023-07-30T05:54:49;8.13;;;8.13;;
9270;SDS011;4673;53.458;9.940;2023-07-30T05:57:15;7.90;;;7.90;;
9270;SDS011;4673;53.458;9.940;2023-07-30T05:59:41;6.80;;;6.80;;
9270;SDS011;4673;53.458;9.940;2023-07-30T06:02:06;7.57;;;7.57;;
9270;SDS011;4673;53.458;9.940;2023-07-30T06:04:32;6.15;;;6.15;;
9270;SDS011;4673;53.458;9.940;2023-07-30T06:06:59;6.28;;;6.28;;
9270;SDS011;4673;53.458;9.940;2023-07-30T06:09:25;6.88;;;6.88;;
9270;SDS011;4673;53.458;9.940;2023-07-30T06:11:51;6.20;;;6.20;;
9270;SDS011;4673;53.458;9.940;2023-07-30T06:14:17;6.07;;;6.07;;
9270;SDS011;4673;53.458;9.940;2023-07-30T06:16:42;8.25;;;8.25;;
9270;SDS011;4673;53.458;9.940;2023-07-30T06:19:09;6.82;;;6.82;;
9270;SDS011;4673;53.458;9.940;2023-07-30T06:21:35;7.97;;;7.88;;
9270;SDS011;4673;53.458;9.940;2023-07-30T06:24:00;7.63;;;7.63;;
9270;SDS011;4673;53.458;9.940;2023-07-30T06:26:26;8.90;;;8.82;;
9270;SDS011;4673;53.458;9.940;2023-07-30T06:28:52;8.85;;;8.80;;
9270;SDS011;4673;53.458;9.940;2023-07-30T06:31:17;8.82;;;8.73;;
9270;SDS011;4673;53.458;9.940;2023-07-30T06:33:43;9.50;;;9.40;;
9270;SDS011;4673;53.458;9.940;2023-07-30T06:36:08;10.40;;;10.30;;
9270;SDS011;4673;53.458;9.940;2023-07-30T06:38:34;10.20;;;10.10;;
9270;SDS011;4673;53.458;9.940;2023-07-30T06:41:00;10.20;;;10.20;;
9270;SDS011;4673;53.458;9.940;2023-07-30T06:43:25;10.65;;;10.55;;
9270;SDS011;4673;53.458;9.940;2023-07-30T06:45:52;9.85;;;9.75;;
9270;SDS011;4673;53.458;9.940;2023-07-30T06:48:18;11.55;;;11.45;;
9270;SDS011;4673;53.458;9.940;2023-07-30T06:50:44;9.45;;;9.45;;
9270;SDS011;4673;53.458;9.940;2023-07-30T06:53:09;10.90;;;10.80;;
9270;SDS011;4673;53.458;9.940;2023-07-30T06:55:35;10.23;;;10.13;;
9270;SDS011;4673;53.458;9.940;2023-07-30T06:58:01;10.55;;;10.45;;
9270;SDS011;4673;53.458;9.940;2023-07-30T07:00:26;12.00;;;11.90;;
9270;SDS011;4673;53.458;9.940;2023-07-30T07:02:52;11.20;;;11.10;;
9270;SDS011;4673;53.458;9.940;2023-07-30T07:05:18;9.27;;;9.27;;
9270;SDS011;4673;53.458;9.940;2023-07-30T07:07:44;9.80;;;9.80;;
9270;SDS011;4673;53.458;9.940;2023-07-30T07:10:10;9.60;;;9.60;;
9270;SDS011;4673;53.458;9.940;2023-07-30T07:12:36;9.75;;;9.75;;
9270;SDS011;4673;53.458;9.940;2023-07-30T07:15:03;9.30;;;9.20;;
9270;SDS011;4673;53.458;9.940;2023-07-30T07:17:29;9.40;;;9.40;;
9270;SDS011;4673;53.458;9.940;2023-07-30T07:19:55;9.43;;;9.32;;
9270;SDS011;4673;53.458;9.940;2023-07-30T07:22:20;8.65;;;8.55;;
9270;SDS011;4673;53.458;9.940;2023-07-30T07:24:46;8.95;;;8.85;;
9270;SDS011;4673;53.458;9.940;2023-07-30T07:27:12;7.60;;;7.60;;
9270;SDS011;4673;53.458;9.940;2023-07-30T07:29:37;7.82;;;7.72;;
9270;SDS011;4673;53.458;9.940;2023-07-30T07:32:03;10.52;;;10.43;;
9270;SDS011;4673;53.458;9.940;2023-07-30T07:34:29;9.35;;;9.25;;
9270;SDS011;4673;53.458;9.940;2023-07-30T07:36:55;9.02;;;9.02;;
9270;SDS011;4673;53.458;9.940;2023-07-30T07:39:20;8.52;;;8.52;;
9270;SDS011;4673;53.458;9.940;2023-07-30T07:41:46;8.60;;;8.60;;
9270;SDS011;4673;53.458;9.940;2023-07-30T07:44:11;8.15;;;8.05;;
9270;SDS011;4673;53.458;9.940;2023-07-30T07:46:37;7.03;;;6.93;;
9270;SDS011;4673;53.458;9.940;2023-07-30T07:49:03;7.88;;;7.78;;
9270;SDS011;4673;53.458;9.940;2023-07-30T07:51:28;5.80;;;5.80;;
9270;SDS011;4673;53.458;9.940;2023-07-30T07:53:54;7.18;;;7.07;;
9270;SDS011;4673;53.458;9.940;2023-07-30T07:56:19;6.72;;;6.72;;
9270;SDS011;4673;53.458;9.940;2023-07-30T07:58:45;6.32;;;6.22;;
9270;SDS011;4673;53.458;9.940;2023-07-30T08:01:11;6.10;;;6.05;;
9270;SDS011;4673;53.458;9.940;2023-07-30T08:03:36;5.25;;;5.25;;
9270;SDS011;4673;53.458;9.940;2023-07-30T08:06:02;5.07;;;5.07;;
9270;SDS011;4673;53.458;9.940;2023-07-30T08:08:28;5.75;;;5.75;;
9270;SDS011;4673;53.458;9.940;2023-07-30T08:10:53;5.55;;;5.55;;
9270;SDS011;4673;53.458;9.940;2023-07-30T08:13:19;4.70;;;4.70;;
9270;SDS011;4673;53.458;9.940;2023-07-30T08:15:45;4.32;;;4.32;;
9270;SDS011;4673;53.458;9.940;2023-07-30T08:18:11;4.00;;;4.00;;
9270;SDS011;4673;53.458;9.940;2023-07-30T08:20:37;4.00;;;4.00;;
9270;SDS011;4673;53.458;9.940;2023-07-30T08:23:02;3.72;;;3.72;;
9270;SDS011;4673;53.458;9.940;2023-07-30T08:25:28;5.55;;;5.55;;
9270;SDS011;4673;53.458;9.940;2023-07-30T08:27:54;5.10;;;5.07;;
9270;SDS011;4673;53.458;9.940;2023-07-30T08:30:20;4.70;;;4.70;;
9270;SDS011;4673;53.458;9.940;2023-07-30T08:32:46;6.25;;;6.25;;
9270;SDS011;4673;53.458;9.940;2023-07-30T08:35:11;3.33;;;3.33;;
9270;SDS011;4673;53.458;9.940;2023-07-30T08:37:37;4.38;;;4.32;;
9270;SDS011;4673;53.458;9.940;2023-07-30T08:40:03;3.92;;;3.92;;
9270;SDS011;4673;53.458;9.940;2023-07-30T08:42:29;3.75;;;3.75;;
9270;SDS011;4673;53.458;9.940;2023-07-30T08:44:55;4.82;;;4.78;;
9270;SDS011;4673;53.458;9.940;2023-07-30T08:47:20;4.53;;;4.53;;
9270;SDS011;4673;53.458;9.940;2023-07-30T08:49:46;3.92;;;3.92;;
9270;SDS011;4673;53.458;9.940;2023-07-30T08:52:12;4.78;;;4.78;;
9270;SDS011;4673;53.458;9.940;2023-07-30T08:54:38;3.25;;;3.25;;
9270;SDS011;4673;53.458;9.940;2023-07-30T08:57:05;4.10;;;4.10;;
9270;SDS011;4673;53.458;9.940;2023-07-30T08:59:39;3.65;;;3.65;;
9270;SDS011;4673;53.458;9.940;2023-07-30T09:02:17;4.35;;;4.35;;
9270;SDS011;4673;53.458;9.940;2023-07-30T09:04:48;3.03;;;3.03;;
9270;SDS011;4673;53.458;9.940;2023-07-30T09:07:18;3.50;;;3.50;;
9270;SDS011;4673;53.458;9.940;2023-07-30T09:09:43;3.53;;;3.53;;
9270;SDS011;4673;53.458;9.940;2023-07-30T09:12:13;3.90;;;3.90;;
9270;SDS011;4673;53.458;9.940;2023-07-30T09:14:39;3.60;;;3.60;;
9270;SDS011;4673;53.458;9.940;2023-07-30T09:17:05;3.35;;;3.35;;
9270;SDS011;4673;53.458;9.940;2023-07-30T09:19:34;3.38;;;3.38;;
9270;SDS011;4673;53.458;9.940;2023-07-30T09:22:03;3.60;;;3.60;;
9270;SDS011;4673;53.458;9.940;2023-07-30T09:24:32;4.43;;;4.43;;
9270;SDS011;4673;53.458;9.940;2023-07-30T09:26:58;3.28;;;3.28;;
9270;SDS011;4673;53.458;9.940;2023-07-30T09:29:27;2.88;;;2.88;;
9270;SDS011;4673;53.458;9.940;2023-07-30T09:31:53;3.13;;;3.13;;
9270;SDS011;4673;53.458;9.940;2023-07-30T09:34:20;3.13;;;3.13;;
9270;SDS011;4673;53.458;9.940;2023-07-30T09:36:47;3.22;;;3.22;;
9270;SDS011;4673;53.458;9.940;2023-07-30T09:39:21;3.10;;;3.10;;
9270;SDS011;4673;53.458;9.940;2023-07-30T09:41:49;3.08;;;3.08;;
9270;SDS011;4673;53.458;9.940;2023-07-30T09:44:16;3.20;;;3.20;;
9270;SDS011;4673;53.458;9.940;2023-07-30T09:46:43;3.72;;;3.72;;
9270;SDS011;4673;53.458;9.940;2023-07-30T09:49:10;3.00;;;3.00;;
9270;SDS011;4673;53.458;9.940;2023-07-30T09:51:37;3.10;;;3.10;;
9270;SDS011;4673;53.458;9.940;2023-07-30T09:54:05;3.72;;;3.72;;
9270;SDS011;4673;53.458;9.940;2023-07-30T09:56:33;3.75;;;3.75;;
9270;SDS011;4673;53.458;9.940;2023-07-30T09:58:59;3.42;;;3.38;;
9270;SDS011;4673;53.458;9.940;2023-07-30T10:01:24;3.97;;;3.97;;
9270;SDS011;4673;53.458;9.940;2023-07-30T10:03:53;3.47;;;3.47;;
9270;SDS011;4673;53.458;9.940;2023-07-30T10:06:23;3.00;;;3.00;;
9270;SDS011;4673;53.458;9.940;2023-07-30T10:08:52;3.17;;;3.17;;
9270;SDS011;4673;53.458;9.940;2023-07-30T10:11:21;3.78;;;3.78;;
9270;SDS011;4673;53.458;9.940;2023-07-30T10:13:48;2.78;;;2.78;;
9270;SDS011;4673;53.458;9.940;2023-07-30T10:16:14;3.35;;;3.35;;
9270;SDS011;4673;53.458;9.940;2023-07-30T10:18:41;3.75;;;3.75;;
9270;SDS011;4673;53.458;9.940;2023-07-30T10:21:08;3.28;;;3.28;;
9270;SDS011;4673;53.458;9.940;2023-07-30T10:23:35;3.05;;;3.05;;
9270;SDS011;4673;53.458;9.940;2023-07-30T10:26:10;3.20;;;3.20;;
9270;SDS011;4673;53.458;9.940;2023-07-30T10:28:36;2.88;;;2.85;;
9270;SDS011;4673;53.458;9.940;2023-07-30T10:31:07;2.97;;;2.97;;
9270;SDS011;4673;53.458;9.940;2023-07-30T10:33:46;2.90;;;2.90;;
9270;SDS011;4673;53.458;9.940;2023-07-30T10:36:16;3.45;;;3.45;;
9270;SDS011;4673;53.458;9.940;2023-07-30T10:39:18;3.05;;;3.05;;
9270;SDS011;4673;53.458;9.940;2023-07-30T10:41:51;3.38;;;3.38;;
9270;SDS011;4673;53.458;9.940;2023-07-30T10:44:22;2.95;;;2.95;;
9270;SDS011;4673;53.458;9.940;2023-07-30T10:46:49;2.95;;;2.95;;
9270;SDS011;4673;53.458;9.940;2023-07-30T10:49:16;2.78;;;2.78;;
9270;SDS011;4673;53.458;9.940;2023-07-30T10:51:41;2.20;;;2.20;;
9270;SDS011;4673;53.458;9.940;2023-07-30T10:54:07;3.00;;;3.00;;
9270;SDS011;4673;53.458;9.940;2023-07-30T10:56:36;2.58;;;2.58;;
9270;SDS011;4673;53.458;9.940;2023-07-30T10:59:06;2.40;;;2.40;;
9270;SDS011;4673;53.458;9.940;2023-07-30T11:01:35;3.03;;;3.03;;
9270;SDS011;4673;53.458;9.940;2023-07-30T11:04:16;2.58;;;2.58;;
9270;SDS011;4673;53.458;9.940;2023-07-30T11:06:47;2.78;;;2.78;;
9270;SDS011;4673;53.458;9.940;2023-07-30T11:09:18;2.00;;;2.00;;
9270;SDS011;4673;53.458;9.940;2023-07-30T11:11:47;3.92;;;3.92;;
9270;SDS011;4673;53.458;9.940;2023-07-30T11:14:17;3.10;;;3.10;;
9270;SDS011;4673;53.458;9.940;2023-07-30T11:16:50;4.43;;;4.43;;
9270;SDS011;4673;53.458;9.940;2023-07-30T11:19:20;3.28;;;3.28;;
9270;SDS011;4673;53.458;9.940;2023-07-30T11:21:47;6.90;;;6.90;;
9270;SDS011;4673;53.458;9.940;2023-07-30T11:24:14;3.67;;;3.67;;
9270;SDS011;4673;53.458;9.940;2023-07-30T11:26:40;2.80;;;2.80;;
9270;SDS011;4673;53.458;9.940;2023-07-30T11:29:19;4.00;;;4.00;;
9270;SDS011;4673;53.458;9.940;2023-07-30T11:31:46;4.10;;;4.10;;
9270;SDS011;4673;53.458;9.940;2023-07-30T11:34:13;2.42;;;2.42;;
9270;SDS011;4673;53.458;9.940;2023-07-30T11:36:39;2.45;;;2.45;;
9270;SDS011;4673;53.458;9.940;2023-07-30T11:39:06;4.05;;;3.97;;
9270;SDS011;4673;53.458;9.940;2023-07-30T11:41:33;2.70;;;2.70;;
9270;SDS011;4673;53.458;9.940;2023-07-30T11:43:59;2.88;;;2.88;;
9270;SDS011;4673;53.458;9.940;2023-07-30T11:46:25;2.85;;;2.85;;
9270;SDS011;4673;53.458;9.940;2023-07-30T11:48:51;3.45;;;3.45;;
9270;SDS011;4673;53.458;9.940;2023-07-30T11:51:22;2.60;;;2.60;;
9270;SDS011;4673;53.458;9.940;2023-07-30T11:56:20;2.92;;;2.92;;
9270;SDS011;4673;53.458;9.940;2023-07-30T11:58:47;2.22;;;2.22;;
9270;SDS011;4673;53.458;9.940;2023-07-30T12:01:13;2.63;;;2.63;;
9270;SDS011;4673;53.458;9.940;2023-07-30T12:03:40;2.92;;;2.92;;
9270;SDS011;4673;53.458;9.940;2023-07-30T12:06:06;3.63;;;3.63;;
9270;SDS011;4673;53.458;9.940;2023-07-30T12:08:34;2.88;;;2.88;;
9270;SDS011;4673;53.458;9.940;2023-07-30T12:11:04;2.10;;;2.10;;
9270;SDS011;4673;53.458;9.940;2023-07-30T12:13:30;2.30;;;2.30;;
9270;SDS011;4673;53.458;9.940;2023-07-30T12:15:57;2.95;;;2.95;;
9270;SDS011;4673;53.458;9.940;2023-07-30T12:18:24;2.60;;;2.60;;
9270;SDS011;4673;53.458;9.940;2023-07-30T12:20:50;2.92;;;2.92;;
9270;SDS011;4673;53.458;9.940;2023-07-30T12:23:17;3.17;;;3.17;;
9270;SDS011;4673;53.458;9.940;2023-07-30T12:25:43;2.38;;;2.38;;
9270;SDS011;4673;53.458;9.940;2023-07-30T12:28:09;2.58;;;2.58;;
9270;SDS011;4673;53.458;9.940;2023-07-30T12:30:35;3.10;;;3.10;;
9270;SDS011;4673;53.458;9.940;2023-07-30T12:33:01;2.47;;;2.47;;
9270;SDS011;4673;53.458;9.940;2023-07-30T12:35:28;2.10;;;2.10;;
9270;SDS011;4673;53.458;9.940;2023-07-30T12:37:54;2.58;;;2.58;;
9270;SDS011;4673;53.458;9.940;2023-07-30T12:40:20;1.83;;;1.83;;
9270;SDS011;4673;53.458;9.940;2023-07-30T12:42:45;2.72;;;2.72;;
9270;SDS011;4673;53.458;9.940;2023-07-30T12:45:11;2.00;;;2.00;;
9270;SDS011;4673;53.458;9.940;2023-07-30T12:47:36;2.80;;;2.80;;
9270;SDS011;4673;53.458;9.940;2023-07-30T12:50:02;2.63;;;2.63;;
9270;SDS011;4673;53.458;9.940;2023-07-30T12:52:29;2.55;;;2.55;;
9270;SDS011;4673;53.458;9.940;2023-07-30T12:54:55;2.63;;;2.63;;
9270;SDS011;4673;53.458;9.940;2023-07-30T12:57:21;2.17;;;2.17;;
9270;SDS011;4673;53.458;9.940;2023-07-30T12:59:47;2.28;;;2.28;;
9270;SDS011;4673;53.458;9.940;2023-07-30T13:02:12;3.25;;;3.25;;
9270;SDS011;4673;53.458;9.940;2023-07-30T13:04:38;2.90;;;2.90;;
9270;SDS011;4673;53.458;9.940;2023-07-30T13:07:03;2.80;;;2.80;;
9270;SDS011;4673;53.458;9.940;2023-07-30T13:09:30;3.00;;;3.00;;
9270;SDS011;4673;53.458;9.940;2023-07-30T13:11:56;2.75;;;2.75;;
9270;SDS011;4673;53.458;9.940;2023-07-30T13:14:22;2.72;;;2.72;;
9270;SDS011;4673;53.458;9.940;2023-07-30T13:16:47;2.33;;;2.33;;
9270;SDS011;4673;53.458;9.940;2023-07-30T13:19:13;1.95;;;1.95;;
9270;SDS011;4673;53.458;9.940;2023-07-30T13:21:38;2.05;;;2.05;;
9270;SDS011;4673;53.458;9.940;2023-07-30T13:24:04;1.77;;;1.77;;
9270;SDS011;4673;53.458;9.940;2023-07-30T13:26:30;1.95;;;1.95;;
9270;SDS011;4673;53.458;9.940;2023-07-30T13:28:55;2.25;;;2.25;;
9270;SDS011;4673;53.458;9.940;2023-07-30T13:31:21;2.47;;;2.47;;
9270;SDS011;4673;53.458;9.940;2023-07-30T13:33:47;1.60;;;1.60;;
9270;SDS011;4673;53.458;9.940;2023-07-30T13:36:13;2.40;;;2.40;;
9270;SDS011;4673;53.458;9.940;2023-07-30T13:38:39;2.25;;;2.25;;
9270;SDS011;4673;53.458;9.940;2023-07-30T13:41:05;2.40;;;2.40;;
9270;SDS011;4673;53.458;9.940;2023-07-30T13:43:32;1.80;;;1.80;;
9270;SDS011;4673;53.458;9.940;2023-07-30T13:45:57;1.90;;;1.90;;
9270;SDS011;4673;53.458;9.940;2023-07-30T13:48:24;2.75;;;2.75;;
9270;SDS011;4673;53.458;9.940;2023-07-30T13:50:50;1.95;;;1.95;;
9270;SDS011;4673;53.458;9.940;2023-07-30T13:53:16;1.63;;;1.63;;
9270;SDS011;4673;53.458;9.940;2023-07-30T13:55:41;1.90;;;1.90;;
9270;SDS011;4673;53.458;9.940;2023-07-30T13:58:07;2.78;;;2.78;;
9270;SDS011;4673;53.458;9.940;2023-07-30T14:00:33;1.90;;;1.90;;
9270;SDS011;4673;53.458;9.940;2023-07-30T14:02:59;2.20;;;2.20;;
9270;SDS011;4673;53.458;9.940;2023-07-30T14:05:25;1.80;;;1.80;;
9270;SDS011;4673;53.458;9.940;2023-07-30T14:07:52;1.83;;;1.83;;
9270;SDS011;4673;53.458;9.940;2023-07-30T14:10:19;1.77;;;1.77;;
9270;SDS011;4673;53.458;9.940;2023-07-30T14:12:44;1.70;;;1.70;;
9270;SDS011;4673;53.458;9.940;2023-07-30T14:15:10;1.73;;;1.73;;
9270;SDS011;4673;53.458;9.940;2023-07-30T14:17:36;1.90;;;1.90;;
9270;SDS011;4673;53.458;9.940;2023-07-30T14:20:01;1.83;;;1.83;;
9270;SDS011;4673;53.458;9.940;2023-07-30T14:22:27;2.38;;;2.38;;
9270;SDS011;4673;53.458;9.940;2023-07-30T14:24:53;1.50;;;1.50;;
9270;SDS011;4673;53.458;9.940;2023-07-30T14:27:19;2.05;;;2.05;;
9270;SDS011;4673;53.458;9.940;2023-07-30T14:29:44;2.00;;;2.00;;
9270;SDS011;4673;53.458;9.940;2023-07-30T14:32:10;2.05;;;2.05;;
9270;SDS011;4673;53.458;9.940;2023-07-30T14:34:36;1.98;;;1.98;;
9270;SDS011;4673;53.458;9.940;2023-07-30T14:37:01;2.30;;;2.30;;
9270;SDS011;4673;53.458;9.940;2023-07-30T14:39:27;2.30;;;2.30;;
9270;SDS011;4673;53.458;9.940;2023-07-30T14:41:53;2.10;;;2.10;;
9270;SDS011;4673;53.458;9.940;2023-07-30T14:44:18;2.33;;;2.33;;
9270;SDS011;4673;53.458;9.940;2023-07-30T14:46:44;2.38;;;2.38;;
9270;SDS011;4673;53.458;9.940;2023-07-30T14:49:10;2.30;;;2.30;;
9270;SDS011;4673;53.458;9.940;2023-07-30T14:51:35;2.60;;;2.60;;
9270;SDS011;4673;53.458;9.940;2023-07-30T14:54:01;2.05;;;2.05;;
9270;SDS011;4673;53.458;9.940;2023-07-30T14:56:28;2.22;;;2.22;;
9270;SDS011;4673;53.458;9.940;2023-07-30T14:58:53;2.15;;;2.15;;
9270;SDS011;4673;53.458;9.940;2023-07-30T15:01:19;1.80;;;1.80;;
9270;SDS011;4673;53.458;9.940;2023-07-30T15:03:47;2.00;;;2.00;;
9270;SDS011;4673;53.458;9.940;2023-07-30T15:06:12;2.33;;;2.33;;
9270;SDS011;4673;53.458;9.940;2023-07-30T15:08:38;2.00;;;2.00;;
9270;SDS011;4673;53.458;9.940;2023-07-30T15:11:04;2.47;;;2.47;;